sensor_id;sensor_type;location;lat;lon;timestamp;P1;durP1;ratioP1;P2;durP2;ratioP2
12535;SDS011;6334;48.696;2.114;2024-02-16T00:00:00;3.23;;;2.93;;
12535;SDS011;6334;48.696;2.114;2024-02-16T00:02:29;3.57;;;2.87;;
12535;SDS011;6334;48.696;2.114;2024-02-16T00:05:02;4.67;;;3.33;;
12535;SDS011;6334;48.696;2.114;2024-02-16T00:07:33;9.53;;;3.30;;
12535;SDS011;6334;48.696;2.114;2024-02-16T00:10:03;4.30;;;3.50;;
12535;SDS011;6334;48.696;2.114;2024-02-16T00:12:33;5.10;;;3.25;;
12535;SDS011;6334;48.696;2.114;2024-02-16T00:15:05;5.12;;;3.22;;
12535;SDS011;6334;48.696;2.114;2024-02-16T00:17:36;3.23;;;3.00;;
12535;SDS011;6334;48.696;2.114;2024-02-16T00:20:08;3.97;;;2.83;;
12535;SDS011;6334;48.696;2.114;2024-02-16T00:22:37;5.20;;;3.20;;
12535;SDS011;6334;48.696;2.114;2024-02-16T00:25:08;3.90;;;3.00;;
12535;SDS011;6334;48.696;2.114;2024-02-16T00:27:38;3.28;;;2.86;;
12535;SDS011;6334;48.696;2.114;2024-02-16T00:30:08;4.07;;;3.23;;
12535;SDS011;6334;48.696;2.114;2024-02-16T00:32:38;5.18;;;3.32;;
12535;SDS011;6334;48.696;2.114;2024-02-16T00:35:09;4.37;;;3.07;;
12535;SDS011;6334;48.696;2.114;2024-02-16T00:40:15;5.83;;;3.40;;
12535;SDS011;6334;48.696;2.114;2024-02-16T00:42:48;3.17;;;2.90;;
12535;SDS011;6334;48.696;2.114;2024-02-16T00:45:18;3.73;;;3.07;;
12535;SDS011;6334;48.696;2.114;2024-02-16T00:47:48;4.00;;;3.30;;
12535;SDS011;6334;48.696;2.114;2024-02-16T00:50:18;5.00;;;3.40;;
12535;SDS011;6334;48.696;2.114;2024-02-16T00:52:49;4.80;;;3.50;;
12535;SDS011;6334;48.696;2.114;2024-02-16T00:55:20;5.40;;;3.12;;
12535;SDS011;6334;48.696;2.114;2024-02-16T01:00:24;4.43;;;3.70;;
12535;SDS011;6334;48.696;2.114;2024-02-16T01:02:54;5.05;;;3.35;;
12535;SDS011;6334;48.696;2.114;2024-02-16T01:05:24;4.33;;;3.00;;
12535;SDS011;6334;48.696;2.114;2024-02-16T01:07:57;6.00;;;3.67;;
12535;SDS011;6334;48.696;2.114;2024-02-16T01:10:27;4.47;;;3.27;;
12535;SDS011;6334;48.696;2.114;2024-02-16T01:12:56;4.53;;;3.40;;
12535;SDS011;6334;48.696;2.114;2024-02-16T01:15:27;4.97;;;3.33;;
12535;SDS011;6334;48.696;2.114;2024-02-16T01:17:57;4.85;;;3.45;;
12535;SDS011;6334;48.696;2.114;2024-02-16T01:20:28;3.83;;;3.47;;
12535;SDS011;6334;48.696;2.114;2024-02-16T01:22:59;3.60;;;3.30;;
12535;SDS011;6334;48.696;2.114;2024-02-16T01:25:29;5.08;;;3.63;;
12535;SDS011;6334;48.696;2.114;2024-02-16T01:27:59;4.80;;;3.33;;
12535;SDS011;6334;48.696;2.114;2024-02-16T01:30:29;6.13;;;3.50;;
12535;SDS011;6334;48.696;2.114;2024-02-16T01:33:00;4.60;;;3.43;;
12535;SDS011;6334;48.696;2.114;2024-02-16T01:35:30;7.97;;;3.90;;
12535;SDS011;6334;48.696;2.114;2024-02-16T01:40:44;4.57;;;3.60;;
12535;SDS011;6334;48.696;2.114;2024-02-16T01:43:18;4.80;;;3.33;;
12535;SDS011;6334;48.696;2.114;2024-02-16T01:45:44;3.77;;;3.00;;
12535;SDS011;6334;48.696;2.114;2024-02-16T01:50:48;5.83;;;3.87;;
12535;SDS011;6334;48.696;2.114;2024-02-16T01:53:18;6.95;;;3.62;;
12535;SDS011;6334;48.696;2.114;2024-02-16T01:55:49;5.70;;;3.70;;
12535;SDS011;6334;48.696;2.114;2024-02-16T01:58:20;3.90;;;3.27;;
12535;SDS011;6334;48.696;2.114;2024-02-16T02:00:50;4.10;;;3.25;;
12535;SDS011;6334;48.696;2.114;2024-02-16T02:03:20;5.23;;;3.40;;
12535;SDS011;6334;48.696;2.114;2024-02-16T02:05:51;4.13;;;3.57;;
12535;SDS011;6334;48.696;2.114;2024-02-16T02:08:24;5.03;;;3.70;;
12535;SDS011;6334;48.696;2.114;2024-02-16T02:10:53;3.86;;;3.40;;
12535;SDS011;6334;48.696;2.114;2024-02-16T02:13:23;4.73;;;3.40;;
12535;SDS011;6334;48.696;2.114;2024-02-16T02:15:53;4.33;;;3.77;;
12535;SDS011;6334;48.696;2.114;2024-02-16T02:18:24;6.00;;;3.97;;
12535;SDS011;6334;48.696;2.114;2024-02-16T02:20:54;4.12;;;3.60;;
12535;SDS011;6334;48.696;2.114;2024-02-16T02:23:24;5.80;;;4.12;;
12535;SDS011;6334;48.696;2.114;2024-02-16T02:25:54;4.63;;;3.40;;
12535;SDS011;6334;48.696;2.114;2024-02-16T02:28:25;9.20;;;3.60;;
12535;SDS011;6334;48.696;2.114;2024-02-16T02:30:55;4.73;;;3.57;;
12535;SDS011;6334;48.696;2.114;2024-02-16T02:33:27;3.50;;;3.20;;
12535;SDS011;6334;48.696;2.114;2024-02-16T02:35:57;5.23;;;3.80;;
12535;SDS011;6334;48.696;2.114;2024-02-16T02:38:29;4.57;;;3.47;;
12535;SDS011;6334;48.696;2.114;2024-02-16T02:41:00;6.07;;;3.53;;
12535;SDS011;6334;48.696;2.114;2024-02-16T02:43:30;4.08;;;3.60;;
12535;SDS011;6334;48.696;2.114;2024-02-16T02:46:01;6.80;;;3.93;;
12535;SDS011;6334;48.696;2.114;2024-02-16T02:51:08;6.23;;;3.90;;
12535;SDS011;6334;48.696;2.114;2024-02-16T02:53:39;4.70;;;3.30;;
12535;SDS011;6334;48.696;2.114;2024-02-16T02:56:10;3.78;;;3.40;;
12535;SDS011;6334;48.696;2.114;2024-02-16T02:58:40;5.73;;;3.70;;
12535;SDS011;6334;48.696;2.114;2024-02-16T03:01:10;4.07;;;3.20;;
12535;SDS011;6334;48.696;2.114;2024-02-16T03:03:41;6.53;;;3.70;;
12535;SDS011;6334;48.696;2.114;2024-02-16T03:06:12;7.23;;;3.50;;
12535;SDS011;6334;48.696;2.114;2024-02-16T03:08:43;7.18;;;3.75;;
12535;SDS011;6334;48.696;2.114;2024-02-16T03:11:14;4.00;;;3.60;;
12535;SDS011;6334;48.696;2.114;2024-02-16T03:13:46;4.22;;;3.48;;
12535;SDS011;6334;48.696;2.114;2024-02-16T03:16:20;4.70;;;3.72;;
12535;SDS011;6334;48.696;2.114;2024-02-16T03:18:52;4.55;;;3.80;;
12535;SDS011;6334;48.696;2.114;2024-02-16T03:21:21;4.90;;;3.50;;
12535;SDS011;6334;48.696;2.114;2024-02-16T03:23:51;4.33;;;3.60;;
12535;SDS011;6334;48.696;2.114;2024-02-16T03:26:21;5.78;;;3.30;;
12535;SDS011;6334;48.696;2.114;2024-02-16T03:28:52;3.90;;;3.20;;
12535;SDS011;6334;48.696;2.114;2024-02-16T03:31:23;3.77;;;3.40;;
12535;SDS011;6334;48.696;2.114;2024-02-16T03:33:52;5.87;;;3.47;;
12535;SDS011;6334;48.696;2.114;2024-02-16T03:36:24;4.85;;;3.42;;
12535;SDS011;6334;48.696;2.114;2024-02-16T03:38:55;3.40;;;3.08;;
12535;SDS011;6334;48.696;2.114;2024-02-16T03:41:25;3.42;;;3.10;;
12535;SDS011;6334;48.696;2.114;2024-02-16T03:43:55;6.22;;;3.67;;
12535;SDS011;6334;48.696;2.114;2024-02-16T03:46:25;5.87;;;3.70;;
12535;SDS011;6334;48.696;2.114;2024-02-16T03:48:56;2.47;;;2.30;;
12535;SDS011;6334;48.696;2.114;2024-02-16T03:51:27;3.40;;;3.10;;
12535;SDS011;6334;48.696;2.114;2024-02-16T03:53:57;5.70;;;3.60;;
12535;SDS011;6334;48.696;2.114;2024-02-16T03:56:34;4.60;;;3.52;;
12535;SDS011;6334;48.696;2.114;2024-02-16T03:59:03;4.43;;;3.60;;
12535;SDS011;6334;48.696;2.114;2024-02-16T04:01:34;6.53;;;3.90;;
12535;SDS011;6334;48.696;2.114;2024-02-16T04:04:04;5.20;;;3.83;;
12535;SDS011;6334;48.696;2.114;2024-02-16T04:06:35;4.97;;;3.43;;
12535;SDS011;6334;48.696;2.114;2024-02-16T04:09:07;5.53;;;3.30;;
12535;SDS011;6334;48.696;2.114;2024-02-16T04:11:36;7.23;;;3.30;;
12535;SDS011;6334;48.696;2.114;2024-02-16T04:14:06;5.27;;;3.30;;
12535;SDS011;6334;48.696;2.114;2024-02-16T04:16:36;6.68;;;3.55;;
12535;SDS011;6334;48.696;2.114;2024-02-16T04:19:09;5.80;;;3.53;;
12535;SDS011;6334;48.696;2.114;2024-02-16T04:21:39;6.12;;;3.60;;
12535;SDS011;6334;48.696;2.114;2024-02-16T04:24:09;5.90;;;3.33;;
12535;SDS011;6334;48.696;2.114;2024-02-16T04:26:41;4.63;;;3.17;;
12535;SDS011;6334;48.696;2.114;2024-02-16T04:31:45;5.30;;;3.90;;
12535;SDS011;6334;48.696;2.114;2024-02-16T04:34:18;4.85;;;3.12;;
12535;SDS011;6334;48.696;2.114;2024-02-16T04:36:49;5.50;;;3.60;;
12535;SDS011;6334;48.696;2.114;2024-02-16T04:39:19;5.72;;;3.15;;
12535;SDS011;6334;48.696;2.114;2024-02-16T04:41:49;5.40;;;3.40;;
12535;SDS011;6334;48.696;2.114;2024-02-16T04:44:19;7.48;;;4.08;;
12535;SDS011;6334;48.696;2.114;2024-02-16T04:46:50;6.68;;;3.50;;
12535;SDS011;6334;48.696;2.114;2024-02-16T04:51:59;7.93;;;3.80;;
12535;SDS011;6334;48.696;2.114;2024-02-16T04:54:31;6.47;;;3.70;;
12535;SDS011;6334;48.696;2.114;2024-02-16T04:57:03;7.47;;;3.78;;
12535;SDS011;6334;48.696;2.114;2024-02-16T04:59:32;4.47;;;3.40;;
12535;SDS011;6334;48.696;2.114;2024-02-16T05:02:02;7.03;;;3.83;;
12535;SDS011;6334;48.696;2.114;2024-02-16T05:04:33;5.72;;;3.75;;
12535;SDS011;6334;48.696;2.114;2024-02-16T05:07:04;8.57;;;4.47;;
12535;SDS011;6334;48.696;2.114;2024-02-16T05:09:34;6.07;;;3.57;;
12535;SDS011;6334;48.696;2.114;2024-02-16T05:12:04;5.17;;;3.50;;
12535;SDS011;6334;48.696;2.114;2024-02-16T05:14:35;5.43;;;3.77;;
12535;SDS011;6334;48.696;2.114;2024-02-16T05:17:04;4.73;;;3.50;;
12535;SDS011;6334;48.696;2.114;2024-02-16T05:19:35;7.17;;;3.33;;
12535;SDS011;6334;48.696;2.114;2024-02-16T05:22:04;5.63;;;3.90;;
12535;SDS011;6334;48.696;2.114;2024-02-16T05:24:36;4.83;;;3.50;;
12535;SDS011;6334;48.696;2.114;2024-02-16T05:27:06;4.95;;;3.83;;
12535;SDS011;6334;48.696;2.114;2024-02-16T05:29:36;4.70;;;3.47;;
12535;SDS011;6334;48.696;2.114;2024-02-16T05:32:06;9.13;;;3.90;;
12535;SDS011;6334;48.696;2.114;2024-02-16T05:34:36;5.57;;;3.55;;
12535;SDS011;6334;48.696;2.114;2024-02-16T05:37:07;6.83;;;3.80;;
12535;SDS011;6334;48.696;2.114;2024-02-16T05:39:37;5.87;;;3.87;;
12535;SDS011;6334;48.696;2.114;2024-02-16T05:42:21;3.80;;;3.35;;
12535;SDS011;6334;48.696;2.114;2024-02-16T05:44:54;8.80;;;3.98;;
12535;SDS011;6334;48.696;2.114;2024-02-16T05:47:24;5.57;;;3.70;;
12535;SDS011;6334;48.696;2.114;2024-02-16T05:49:53;7.53;;;3.90;;
12535;SDS011;6334;48.696;2.114;2024-02-16T05:52:23;5.80;;;3.63;;
12535;SDS011;6334;48.696;2.114;2024-02-16T05:54:53;6.33;;;3.73;;
12535;SDS011;6334;48.696;2.114;2024-02-16T05:57:24;6.90;;;3.58;;
12535;SDS011;6334;48.696;2.114;2024-02-16T05:59:54;4.93;;;3.30;;
12535;SDS011;6334;48.696;2.114;2024-02-16T06:02:25;6.67;;;3.97;;
12535;SDS011;6334;48.696;2.114;2024-02-16T06:04:56;5.93;;;3.80;;
12535;SDS011;6334;48.696;2.114;2024-02-16T06:07:26;7.16;;;3.70;;
12535;SDS011;6334;48.696;2.114;2024-02-16T06:09:56;9.26;;;3.79;;
12535;SDS011;6334;48.696;2.114;2024-02-16T06:12:25;10.53;;;4.17;;
12535;SDS011;6334;48.696;2.114;2024-02-16T06:14:57;8.07;;;4.17;;
12535;SDS011;6334;48.696;2.114;2024-02-16T06:17:27;5.50;;;3.65;;
12535;SDS011;6334;48.696;2.114;2024-02-16T06:19:57;5.90;;;3.67;;
12535;SDS011;6334;48.696;2.114;2024-02-16T06:22:27;6.44;;;3.29;;
12535;SDS011;6334;48.696;2.114;2024-02-16T06:24:56;8.87;;;3.90;;
12535;SDS011;6334;48.696;2.114;2024-02-16T06:27:28;6.44;;;3.58;;
12535;SDS011;6334;48.696;2.114;2024-02-16T06:29:57;6.47;;;3.67;;
12535;SDS011;6334;48.696;2.114;2024-02-16T06:32:29;7.83;;;3.60;;
12535;SDS011;6334;48.696;2.114;2024-02-16T06:35:00;6.10;;;3.70;;
12535;SDS011;6334;48.696;2.114;2024-02-16T06:37:35;6.96;;;3.94;;
12535;SDS011;6334;48.696;2.114;2024-02-16T06:40:08;7.33;;;3.63;;
12535;SDS011;6334;48.696;2.114;2024-02-16T06:42:38;6.06;;;2.92;;
12535;SDS011;6334;48.696;2.114;2024-02-16T06:45:08;7.60;;;3.77;;
12535;SDS011;6334;48.696;2.114;2024-02-16T06:47:39;5.65;;;3.33;;
12535;SDS011;6334;48.696;2.114;2024-02-16T06:50:09;9.67;;;4.03;;
12535;SDS011;6334;48.696;2.114;2024-02-16T06:52:40;5.80;;;3.57;;
12535;SDS011;6334;48.696;2.114;2024-02-16T06:55:10;5.20;;;3.17;;
12535;SDS011;6334;48.696;2.114;2024-02-16T07:00:15;8.87;;;3.57;;
12535;SDS011;6334;48.696;2.114;2024-02-16T07:02:46;9.07;;;3.60;;
12535;SDS011;6334;48.696;2.114;2024-02-16T07:05:16;7.93;;;3.40;;
12535;SDS011;6334;48.696;2.114;2024-02-16T07:07:48;8.37;;;3.23;;
12535;SDS011;6334;48.696;2.114;2024-02-16T07:10:18;5.17;;;2.90;;
12535;SDS011;6334;48.696;2.114;2024-02-16T07:12:49;6.78;;;2.97;;
12535;SDS011;6334;48.696;2.114;2024-02-16T07:15:19;6.20;;;3.43;;
12535;SDS011;6334;48.696;2.114;2024-02-16T07:17:50;6.12;;;3.02;;
12535;SDS011;6334;48.696;2.114;2024-02-16T07:20:33;10.53;;;3.58;;
12535;SDS011;6334;48.696;2.114;2024-02-16T07:23:06;8.81;;;3.64;;
12535;SDS011;6334;48.696;2.114;2024-02-16T07:25:36;6.43;;;3.70;;
12535;SDS011;6334;48.696;2.114;2024-02-16T07:28:06;4.20;;;3.10;;
12535;SDS011;6334;48.696;2.114;2024-02-16T07:30:37;7.67;;;3.20;;
12535;SDS011;6334;48.696;2.114;2024-02-16T07:33:07;6.63;;;3.30;;
12535;SDS011;6334;48.696;2.114;2024-02-16T07:35:37;5.90;;;2.77;;
12535;SDS011;6334;48.696;2.114;2024-02-16T07:38:10;7.19;;;3.11;;
12535;SDS011;6334;48.696;2.114;2024-02-16T07:40:41;4.50;;;2.70;;
12535;SDS011;6334;48.696;2.114;2024-02-16T07:43:11;3.30;;;2.60;;
12535;SDS011;6334;48.696;2.114;2024-02-16T07:45:41;5.97;;;2.40;;
12535;SDS011;6334;48.696;2.114;2024-02-16T07:50:46;5.30;;;2.03;;
12535;SDS011;6334;48.696;2.114;2024-02-16T07:53:16;4.83;;;2.00;;
12535;SDS011;6334;48.696;2.114;2024-02-16T07:55:46;3.90;;;1.97;;
12535;SDS011;6334;48.696;2.114;2024-02-16T08:00:57;7.12;;;2.08;;
12535;SDS011;6334;48.696;2.114;2024-02-16T08:03:26;3.80;;;2.00;;
12535;SDS011;6334;48.696;2.114;2024-02-16T08:05:59;4.22;;;1.82;;
12535;SDS011;6334;48.696;2.114;2024-02-16T08:08:29;7.87;;;2.08;;
12535;SDS011;6334;48.696;2.114;2024-02-16T08:10:59;6.57;;;2.65;;
12535;SDS011;6334;48.696;2.114;2024-02-16T08:13:29;5.87;;;2.70;;
12535;SDS011;6334;48.696;2.114;2024-02-16T08:15:58;5.93;;;2.60;;
12535;SDS011;6334;48.696;2.114;2024-02-16T08:18:29;3.13;;;1.90;;
12535;SDS011;6334;48.696;2.114;2024-02-16T08:21:00;4.17;;;2.03;;
12535;SDS011;6334;48.696;2.114;2024-02-16T08:23:30;3.03;;;1.43;;
12535;SDS011;6334;48.696;2.114;2024-02-16T08:26:00;4.23;;;1.67;;
12535;SDS011;6334;48.696;2.114;2024-02-16T08:28:31;4.25;;;2.03;;
12535;SDS011;6334;48.696;2.114;2024-02-16T08:31:01;7.27;;;2.23;;
12535;SDS011;6334;48.696;2.114;2024-02-16T08:33:31;4.40;;;1.97;;
12535;SDS011;6334;48.696;2.114;2024-02-16T08:36:01;4.70;;;1.87;;
12535;SDS011;6334;48.696;2.114;2024-02-16T08:38:31;4.33;;;1.67;;
12535;SDS011;6334;48.696;2.114;2024-02-16T08:41:00;4.47;;;1.67;;
12535;SDS011;6334;48.696;2.114;2024-02-16T08:43:32;3.23;;;1.67;;
12535;SDS011;6334;48.696;2.114;2024-02-16T08:46:01;5.72;;;2.06;;
12535;SDS011;6334;48.696;2.114;2024-02-16T08:51:06;5.90;;;2.17;;
12535;SDS011;6334;48.696;2.114;2024-02-16T08:53:37;5.57;;;1.80;;
12535;SDS011;6334;48.696;2.114;2024-02-16T08:56:10;5.43;;;2.10;;
12535;SDS011;6334;48.696;2.114;2024-02-16T09:01:15;3.07;;;1.47;;
12535;SDS011;6334;48.696;2.114;2024-02-16T09:03:44;1.87;;;1.47;;
12535;SDS011;6334;48.696;2.114;2024-02-16T09:06:14;6.40;;;1.80;;
12535;SDS011;6334;48.696;2.114;2024-02-16T09:08:43;4.73;;;1.63;;
12535;SDS011;6334;48.696;2.114;2024-02-16T09:11:13;2.53;;;1.43;;
12535;SDS011;6334;48.696;2.114;2024-02-16T09:13:43;3.30;;;1.27;;
12535;SDS011;6334;48.696;2.114;2024-02-16T09:16:12;6.50;;;2.03;;
12535;SDS011;6334;48.696;2.114;2024-02-16T09:18:42;3.70;;;1.63;;
12535;SDS011;6334;48.696;2.114;2024-02-16T09:21:11;3.37;;;1.60;;
12535;SDS011;6334;48.696;2.114;2024-02-16T09:23:41;3.77;;;1.47;;
12535;SDS011;6334;48.696;2.114;2024-02-16T09:26:10;3.73;;;1.83;;
12535;SDS011;6334;48.696;2.114;2024-02-16T09:28:40;3.90;;;1.60;;
12535;SDS011;6334;48.696;2.114;2024-02-16T09:31:13;7.67;;;2.77;;
12535;SDS011;6334;48.696;2.114;2024-02-16T09:33:39;3.57;;;1.83;;
12535;SDS011;6334;48.696;2.114;2024-02-16T09:36:09;4.03;;;2.10;;
12535;SDS011;6334;48.696;2.114;2024-02-16T09:38:38;5.57;;;1.83;;
12535;SDS011;6334;48.696;2.114;2024-02-16T09:41:08;4.60;;;2.07;;
12535;SDS011;6334;48.696;2.114;2024-02-16T09:43:38;3.50;;;1.80;;
12535;SDS011;6334;48.696;2.114;2024-02-16T09:46:10;5.20;;;1.87;;
12535;SDS011;6334;48.696;2.114;2024-02-16T09:48:40;3.70;;;2.27;;
12535;SDS011;6334;48.696;2.114;2024-02-16T09:51:09;5.40;;;2.00;;
12535;SDS011;6334;48.696;2.114;2024-02-16T09:53:39;6.97;;;2.27;;
12535;SDS011;6334;48.696;2.114;2024-02-16T09:56:08;3.07;;;1.63;;
12535;SDS011;6334;48.696;2.114;2024-02-16T09:58:39;4.83;;;1.60;;
12535;SDS011;6334;48.696;2.114;2024-02-16T10:01:16;2.60;;;1.87;;
12535;SDS011;6334;48.696;2.114;2024-02-16T10:03:38;2.73;;;1.43;;
12535;SDS011;6334;48.696;2.114;2024-02-16T10:06:10;2.57;;;2.03;;
12535;SDS011;6334;48.696;2.114;2024-02-16T10:08:54;4.47;;;2.30;;
12535;SDS011;6334;48.696;2.114;2024-02-16T10:11:26;2.60;;;1.60;;
12535;SDS011;6334;48.696;2.114;2024-02-16T10:13:57;6.50;;;2.25;;
12535;SDS011;6334;48.696;2.114;2024-02-16T10:16:27;4.65;;;2.40;;
12535;SDS011;6334;48.696;2.114;2024-02-16T10:27:39;2.30;;;2.10;;
12535;SDS011;6334;48.696;2.114;2024-02-16T10:34:46;3.57;;;2.90;;
12535;SDS011;6334;48.696;2.114;2024-02-16T10:37:16;3.41;;;3.13;;
12535;SDS011;6334;48.696;2.114;2024-02-16T10:39:46;3.60;;;3.30;;
12535;SDS011;6334;48.696;2.114;2024-02-16T10:42:16;4.43;;;3.27;;
12535;SDS011;6334;48.696;2.114;2024-02-16T10:44:46;3.77;;;3.23;;
12535;SDS011;6334;48.696;2.114;2024-02-16T10:51:20;4.50;;;3.24;;
12535;SDS011;6334;48.696;2.114;2024-02-16T10:53:47;3.75;;;3.45;;
12535;SDS011;6334;48.696;2.114;2024-02-16T10:56:26;3.47;;;3.17;;
12535;SDS011;6334;48.696;2.114;2024-02-16T10:58:49;3.58;;;3.28;;
12535;SDS011;6334;48.696;2.114;2024-02-16T11:10:28;4.10;;;3.70;;
12535;SDS011;6334;48.696;2.114;2024-02-16T11:13:04;3.57;;;3.30;;
12535;SDS011;6334;48.696;2.114;2024-02-16T11:15:34;3.90;;;3.60;;
12535;SDS011;6334;48.696;2.114;2024-02-16T11:18:03;3.94;;;3.61;;
12535;SDS011;6334;48.696;2.114;2024-02-16T11:20:36;5.50;;;4.03;;
12535;SDS011;6334;48.696;2.114;2024-02-16T11:23:06;4.56;;;3.93;;
12535;SDS011;6334;48.696;2.114;2024-02-16T11:25:38;4.57;;;4.13;;
12535;SDS011;6334;48.696;2.114;2024-02-16T11:28:06;4.50;;;4.10;;
12535;SDS011;6334;48.696;2.114;2024-02-16T11:30:36;5.13;;;4.63;;
12535;SDS011;6334;48.696;2.114;2024-02-16T11:33:09;5.03;;;4.30;;
12535;SDS011;6334;48.696;2.114;2024-02-16T11:35:37;4.70;;;4.30;;
12535;SDS011;6334;48.696;2.114;2024-02-16T11:40:52;5.07;;;4.57;;
12535;SDS011;6334;48.696;2.114;2024-02-16T11:43:19;6.44;;;4.50;;
12535;SDS011;6334;48.696;2.114;2024-02-16T11:45:46;6.37;;;4.90;;
12535;SDS011;6334;48.696;2.114;2024-02-16T11:48:23;5.20;;;4.70;;
12535;SDS011;6334;48.696;2.114;2024-02-16T11:50:59;5.03;;;4.53;;
12535;SDS011;6334;48.696;2.114;2024-02-16T11:56:35;6.40;;;4.70;;
12535;SDS011;6334;48.696;2.114;2024-02-16T11:59:09;7.67;;;5.60;;
12535;SDS011;6334;48.696;2.114;2024-02-16T12:01:48;6.72;;;5.60;;
12535;SDS011;6334;48.696;2.114;2024-02-16T12:04:18;7.17;;;4.97;;
12535;SDS011;6334;48.696;2.114;2024-02-16T12:13:23;4.60;;;4.14;;
12535;SDS011;6334;48.696;2.114;2024-02-16T12:15:52;5.83;;;4.50;;
12535;SDS011;6334;48.696;2.114;2024-02-16T12:18:23;5.00;;;4.50;;
12535;SDS011;6334;48.696;2.114;2024-02-16T12:21:06;5.00;;;4.46;;
12535;SDS011;6334;48.696;2.114;2024-02-16T12:30:51;5.75;;;3.85;;
12535;SDS011;6334;48.696;2.114;2024-02-16T12:33:21;7.28;;;4.18;;
12535;SDS011;6334;48.696;2.114;2024-02-16T12:35:54;5.67;;;3.63;;
12535;SDS011;6334;48.696;2.114;2024-02-16T12:38:25;4.23;;;3.63;;
12535;SDS011;6334;48.696;2.114;2024-02-16T12:40:55;5.23;;;3.27;;
12535;SDS011;6334;48.696;2.114;2024-02-16T12:43:32;3.50;;;3.20;;
12535;SDS011;6334;48.696;2.114;2024-02-16T12:46:06;5.54;;;3.30;;
12535;SDS011;6334;48.696;2.114;2024-02-16T12:51:10;4.50;;;3.17;;
12535;SDS011;6334;48.696;2.114;2024-02-16T12:53:40;5.27;;;3.53;;
12535;SDS011;6334;48.696;2.114;2024-02-16T12:56:10;4.80;;;3.43;;
12535;SDS011;6334;48.696;2.114;2024-02-16T12:58:39;5.52;;;3.10;;
12535;SDS011;6334;48.696;2.114;2024-02-16T13:01:10;4.90;;;3.50;;
12535;SDS011;6334;48.696;2.114;2024-02-16T13:03:42;5.50;;;3.40;;
12535;SDS011;6334;48.696;2.114;2024-02-16T13:06:13;3.47;;;3.00;;
12535;SDS011;6334;48.696;2.114;2024-02-16T13:08:45;5.85;;;2.85;;
12535;SDS011;6334;48.696;2.114;2024-02-16T13:11:15;5.57;;;3.10;;
12535;SDS011;6334;48.696;2.114;2024-02-16T13:13:47;5.48;;;3.10;;
12535;SDS011;6334;48.696;2.114;2024-02-16T13:16:17;4.47;;;2.72;;
12535;SDS011;6334;48.696;2.114;2024-02-16T13:21:21;5.93;;;3.40;;
12535;SDS011;6334;48.696;2.114;2024-02-16T13:23:55;5.87;;;3.30;;
12535;SDS011;6334;48.696;2.114;2024-02-16T13:26:25;12.00;;;4.20;;
12535;SDS011;6334;48.696;2.114;2024-02-16T13:28:57;7.14;;;3.68;;
12535;SDS011;6334;48.696;2.114;2024-02-16T13:31:26;6.75;;;3.80;;
12535;SDS011;6334;48.696;2.114;2024-02-16T13:33:56;6.60;;;4.03;;
12535;SDS011;6334;48.696;2.114;2024-02-16T13:36:26;7.12;;;3.70;;
12535;SDS011;6334;48.696;2.114;2024-02-16T13:38:56;6.93;;;4.00;;
12535;SDS011;6334;48.696;2.114;2024-02-16T13:41:26;6.00;;;3.77;;
12535;SDS011;6334;48.696;2.114;2024-02-16T13:43:57;5.95;;;3.87;;
12535;SDS011;6334;48.696;2.114;2024-02-16T13:46:27;7.42;;;4.12;;
12535;SDS011;6334;48.696;2.114;2024-02-16T13:51:32;4.97;;;3.70;;
12535;SDS011;6334;48.696;2.114;2024-02-16T13:54:02;5.35;;;3.20;;
12535;SDS011;6334;48.696;2.114;2024-02-16T13:56:33;5.75;;;3.33;;
12535;SDS011;6334;48.696;2.114;2024-02-16T13:59:03;7.13;;;3.70;;
12535;SDS011;6334;48.696;2.114;2024-02-16T14:01:35;7.37;;;3.10;;
12535;SDS011;6334;48.696;2.114;2024-02-16T14:04:08;5.10;;;3.56;;
12535;SDS011;6334;48.696;2.114;2024-02-16T14:06:38;9.80;;;3.80;;
12535;SDS011;6334;48.696;2.114;2024-02-16T14:11:25;4.20;;;3.00;;
12535;SDS011;6334;48.696;2.114;2024-02-16T14:13:55;7.07;;;3.37;;
12535;SDS011;6334;48.696;2.114;2024-02-16T14:16:25;6.27;;;3.10;;
12535;SDS011;6334;48.696;2.114;2024-02-16T14:18:55;6.73;;;3.20;;
12535;SDS011;6334;48.696;2.114;2024-02-16T14:21:25;6.80;;;3.43;;
12535;SDS011;6334;48.696;2.114;2024-02-16T14:23:56;6.37;;;3.53;;
12535;SDS011;6334;48.696;2.114;2024-02-16T14:26:26;5.13;;;3.30;;
12535;SDS011;6334;48.696;2.114;2024-02-16T14:28:57;7.23;;;3.23;;
12535;SDS011;6334;48.696;2.114;2024-02-16T14:31:27;8.60;;;3.57;;
12535;SDS011;6334;48.696;2.114;2024-02-16T14:33:58;4.77;;;2.87;;
12535;SDS011;6334;48.696;2.114;2024-02-16T14:36:28;8.60;;;3.47;;
12535;SDS011;6334;48.696;2.114;2024-02-16T14:38:59;10.40;;;3.47;;
12535;SDS011;6334;48.696;2.114;2024-02-16T14:41:29;6.27;;;3.47;;
12535;SDS011;6334;48.696;2.114;2024-02-16T14:44:00;7.10;;;3.70;;
12535;SDS011;6334;48.696;2.114;2024-02-16T14:46:30;5.10;;;3.27;;
12535;SDS011;6334;48.696;2.114;2024-02-16T14:49:01;4.87;;;2.83;;
12535;SDS011;6334;48.696;2.114;2024-02-16T14:51:31;4.33;;;3.23;;
12535;SDS011;6334;48.696;2.114;2024-02-16T14:54:03;6.47;;;2.60;;
12535;SDS011;6334;48.696;2.114;2024-02-16T14:56:35;5.83;;;3.20;;
12535;SDS011;6334;48.696;2.114;2024-02-16T14:59:05;3.83;;;2.60;;
12535;SDS011;6334;48.696;2.114;2024-02-16T15:01:36;7.23;;;3.13;;
12535;SDS011;6334;48.696;2.114;2024-02-16T15:04:06;5.53;;;2.70;;
12535;SDS011;6334;48.696;2.114;2024-02-16T15:06:36;7.53;;;3.33;;
12535;SDS011;6334;48.696;2.114;2024-02-16T15:09:07;5.87;;;2.83;;
12535;SDS011;6334;48.696;2.114;2024-02-16T15:11:37;6.07;;;3.10;;
12535;SDS011;6334;48.696;2.114;2024-02-16T15:14:08;4.70;;;3.00;;
12535;SDS011;6334;48.696;2.114;2024-02-16T15:16:38;5.17;;;3.00;;
12535;SDS011;6334;48.696;2.114;2024-02-16T15:19:09;8.27;;;3.40;;
12535;SDS011;6334;48.696;2.114;2024-02-16T15:21:39;4.30;;;2.50;;
12535;SDS011;6334;48.696;2.114;2024-02-16T15:24:10;5.90;;;3.37;;
12535;SDS011;6334;48.696;2.114;2024-02-16T15:26:42;6.17;;;2.80;;
12535;SDS011;6334;48.696;2.114;2024-02-16T15:29:12;5.17;;;2.73;;
12535;SDS011;6334;48.696;2.114;2024-02-16T15:31:42;6.80;;;2.30;;
12535;SDS011;6334;48.696;2.114;2024-02-16T15:34:13;7.60;;;3.00;;
12535;SDS011;6334;48.696;2.114;2024-02-16T15:36:43;4.77;;;2.77;;
12535;SDS011;6334;48.696;2.114;2024-02-16T15:39:13;11.17;;;3.63;;
12535;SDS011;6334;48.696;2.114;2024-02-16T15:41:43;8.70;;;2.83;;
12535;SDS011;6334;48.696;2.114;2024-02-16T15:44:14;6.53;;;2.90;;
12535;SDS011;6334;48.696;2.114;2024-02-16T15:46:44;4.60;;;2.27;;
12535;SDS011;6334;48.696;2.114;2024-02-16T15:49:15;5.83;;;2.23;;
12535;SDS011;6334;48.696;2.114;2024-02-16T15:51:44;8.80;;;2.30;;
12535;SDS011;6334;48.696;2.114;2024-02-16T15:54:15;5.30;;;2.13;;
12535;SDS011;6334;48.696;2.114;2024-02-16T15:56:45;5.23;;;2.10;;
12535;SDS011;6334;48.696;2.114;2024-02-16T15:59:16;4.47;;;1.93;;
12535;SDS011;6334;48.696;2.114;2024-02-16T16:01:46;4.57;;;2.20;;
12535;SDS011;6334;48.696;2.114;2024-02-16T16:04:17;6.13;;;2.30;;
12535;SDS011;6334;48.696;2.114;2024-02-16T16:06:47;3.97;;;2.30;;
12535;SDS011;6334;48.696;2.114;2024-02-16T16:09:18;6.40;;;2.43;;
12535;SDS011;6334;48.696;2.114;2024-02-16T16:11:48;6.10;;;2.70;;
12535;SDS011;6334;48.696;2.114;2024-02-16T16:14:18;5.90;;;2.47;;
12535;SDS011;6334;48.696;2.114;2024-02-16T16:16:49;4.40;;;2.50;;
12535;SDS011;6334;48.696;2.114;2024-02-16T16:19:20;6.67;;;2.87;;
12535;SDS011;6334;48.696;2.114;2024-02-16T16:21:50;5.93;;;2.90;;
12535;SDS011;6334;48.696;2.114;2024-02-16T16:24:19;4.63;;;2.23;;
12535;SDS011;6334;48.696;2.114;2024-02-16T16:26:50;6.33;;;2.63;;
12535;SDS011;6334;48.696;2.114;2024-02-16T16:29:20;7.97;;;2.43;;
12535;SDS011;6334;48.696;2.114;2024-02-16T16:31:51;6.00;;;2.03;;
12535;SDS011;6334;48.696;2.114;2024-02-16T16:34:21;3.73;;;2.30;;
12535;SDS011;6334;48.696;2.114;2024-02-16T16:36:52;2.07;;;1.73;;
12535;SDS011;6334;48.696;2.114;2024-02-16T16:39:22;5.57;;;2.30;;
12535;SDS011;6334;48.696;2.114;2024-02-16T16:41:53;3.23;;;1.53;;
12535;SDS011;6334;48.696;2.114;2024-02-16T16:44:23;4.07;;;1.60;;
12535;SDS011;6334;48.696;2.114;2024-02-16T16:46:54;4.37;;;2.10;;